createdAt,value
2022-09-17T00:00:19.245Z,0.68
2022-09-17T00:03:24.265Z,0.70
2022-09-17T00:06:29.019Z,0.95
2022-09-17T00:09:34.199Z,0.70
2022-09-17T00:12:38.938Z,0.70
2022-09-17T00:15:46.533Z,0.60
2022-09-17T00:18:51.076Z,0.60
2022-09-17T00:21:55.198Z,0.77
2022-09-17T00:24:59.882Z,0.65
2022-09-17T00:28:04.258Z,0.60
2022-09-17T00:31:09.820Z,0.93
2022-09-17T00:34:14.249Z,0.50
2022-09-17T00:37:19.880Z,0.60
2022-09-17T00:40:24.560Z,0.80
2022-09-17T00:43:49.735Z,0.80
2022-09-17T00:46:54.361Z,0.60
2022-09-17T00:50:08.413Z,0.70
2022-09-17T00:53:19.700Z,0.60
2022-09-17T00:56:28.685Z,0.60
2022-09-17T00:59:33.567Z,0.60
2022-09-17T01:02:39.676Z,0.55
2022-09-17T01:06:07.402Z,0.70
2022-09-17T01:09:33.657Z,0.90
2022-09-17T01:13:24.516Z,0.68
2022-09-17T01:17:10.031Z,0.80
2022-09-17T01:20:46.562Z,0.60
2022-09-17T01:24:12.907Z,0.73
2022-09-17T01:28:10.287Z,0.95
2022-09-17T01:31:47.176Z,0.80
2022-09-17T01:35:26.024Z,0.50
2022-09-17T01:38:54.216Z,0.82
2022-09-17T01:42:16.326Z,0.80
2022-09-17T01:45:32.875Z,0.70
2022-09-17T01:48:44.452Z,0.70
2022-09-17T01:51:50.784Z,0.60
2022-09-17T01:55:00.902Z,0.52
2022-09-17T01:58:36.344Z,0.57
2022-09-17T02:01:43.761Z,0.70
2022-09-17T02:05:05.104Z,0.75
2022-09-17T02:08:16.831Z,0.85
2022-09-17T02:11:21.802Z,0.65
2022-09-17T02:14:36.822Z,0.60
2022-09-17T02:17:59.441Z,0.60
2022-09-17T02:21:28.188Z,0.52
2022-09-17T02:24:56.769Z,0.47
2022-09-17T02:28:15.869Z,0.55
2022-09-17T02:31:20.497Z,0.82
2022-09-17T02:34:28.146Z,0.57
2022-09-17T02:37:33.126Z,0.55
2022-09-17T02:40:54.440Z,0.50
2022-09-17T02:44:38.945Z,0.70
2022-09-17T02:48:09.068Z,0.40
2022-09-17T02:51:47.857Z,0.68
2022-09-17T02:55:21.904Z,0.70
2022-09-17T02:58:38.666Z,0.60
2022-09-17T03:01:51.332Z,0.57
2022-09-17T03:04:57.073Z,0.63
2022-09-17T03:08:02.065Z,0.60
2022-09-17T03:11:09.117Z,0.63
2022-09-17T03:14:13.409Z,0.70
2022-09-17T03:17:18.013Z,0.85
2022-09-17T03:20:22.610Z,0.60
2022-09-17T03:23:28.034Z,0.50
2022-09-17T03:26:32.523Z,0.47
2022-09-17T03:29:37.295Z,0.60
2022-09-17T03:32:41.769Z,0.57
2022-09-17T03:35:47.299Z,0.45
2022-09-17T03:38:58.944Z,0.50
2022-09-17T03:42:03.588Z,0.73
2022-09-17T03:45:09.548Z,0.68
2022-09-17T03:48:14.104Z,0.50
2022-09-17T03:51:18.460Z,0.75
2022-09-17T03:54:23.232Z,0.70
2022-09-17T03:57:28.010Z,0.60
2022-09-17T04:00:33.793Z,0.60
2022-09-17T04:03:39.288Z,0.57
2022-09-17T04:06:43.884Z,0.70
2022-09-17T04:09:48.115Z,1.08
2022-09-17T04:12:52.756Z,0.60
2022-09-17T04:15:57.305Z,0.60
2022-09-17T04:19:02.330Z,0.60
2022-09-17T04:22:07.037Z,0.70
2022-09-17T04:25:11.719Z,0.60
2022-09-17T04:28:16.645Z,0.63
2022-09-17T04:31:22.701Z,0.75
2022-09-17T04:34:27.396Z,0.68
2022-09-17T04:37:32.548Z,0.90
2022-09-17T04:40:37.354Z,0.55
2022-09-17T04:43:42.129Z,0.65
2022-09-17T04:46:46.962Z,0.70
2022-09-17T04:49:52.058Z,0.52
2022-09-17T04:52:56.616Z,0.50
2022-09-17T04:56:01.193Z,0.60
2022-09-17T04:59:05.903Z,0.70
2022-09-17T05:02:10.638Z,0.70
2022-09-17T05:05:17.386Z,0.50
2022-09-17T05:08:23.935Z,0.70
2022-09-17T05:11:29.244Z,0.60
2022-09-17T05:14:34.163Z,0.70
2022-09-17T05:17:38.900Z,0.60
2022-09-17T05:20:43.710Z,1.00
2022-09-17T05:23:48.091Z,0.47
2022-09-17T05:26:52.897Z,0.50
2022-09-17T05:29:57.621Z,0.77
2022-09-17T05:33:05.832Z,0.70
2022-09-17T05:36:10.572Z,0.82
2022-09-17T05:39:15.797Z,0.70
2022-09-17T05:42:20.774Z,0.60
2022-09-17T05:45:25.819Z,0.63
2022-09-17T05:48:30.426Z,0.50
2022-09-17T05:51:35.153Z,0.70
2022-09-17T05:54:40.177Z,0.70
2022-09-17T05:57:45.204Z,0.50
2022-09-17T06:00:50.411Z,0.55
2022-09-17T06:03:54.910Z,0.60
2022-09-17T06:06:59.573Z,0.65
2022-09-17T06:10:06.870Z,0.98
2022-09-17T06:13:11.729Z,0.60
2022-09-17T06:16:17.307Z,0.52
2022-09-17T06:19:22.540Z,0.55
2022-09-17T06:22:27.609Z,0.57
2022-09-17T06:25:32.212Z,0.70
2022-09-17T06:28:41.538Z,0.60
2022-09-17T06:31:49.516Z,0.65
2022-09-17T06:34:56.178Z,0.70
2022-09-17T06:38:00.674Z,0.60
2022-09-17T06:41:06.079Z,0.40
2022-09-17T06:44:10.683Z,0.50
2022-09-17T06:47:15.451Z,0.90
2022-09-17T06:50:20.813Z,0.77
2022-09-17T06:53:25.797Z,0.45
2022-09-17T06:56:30.552Z,0.50
2022-09-17T06:59:35.177Z,0.73
2022-09-17T07:02:39.699Z,0.70
2022-09-17T07:05:45.381Z,0.40
2022-09-17T07:08:50.277Z,0.70
2022-09-17T07:11:55.082Z,0.50
2022-09-17T07:14:59.987Z,0.63
2022-09-17T07:18:10.167Z,0.43
2022-09-17T07:21:15.060Z,0.50
2022-09-17T07:24:19.683Z,0.70
2022-09-17T07:27:24.234Z,0.50
2022-09-17T07:30:29.952Z,0.70
2022-09-17T07:33:36.827Z,0.57
2022-09-17T07:36:43.446Z,0.50
2022-09-17T07:39:48.362Z,0.50
2022-09-17T07:42:54.463Z,0.52
2022-09-17T07:46:01.618Z,0.70
2022-09-17T07:49:06.476Z,0.60
2022-09-17T07:52:11.141Z,0.60
2022-09-17T07:55:16.686Z,0.60
2022-09-17T07:58:34.256Z,0.57
2022-09-17T08:01:39.565Z,0.50
2022-09-17T08:04:44.383Z,0.50
2022-09-17T08:07:54.171Z,0.40
2022-09-17T08:11:05.180Z,0.40
2022-09-17T08:14:12.959Z,0.35
2022-09-17T08:17:17.707Z,0.40
2022-09-17T08:20:24.240Z,0.40
2022-09-17T08:23:30.916Z,0.40
2022-09-17T08:26:36.080Z,0.57
2022-09-17T08:29:40.856Z,0.70
2022-09-17T08:32:45.557Z,0.55
2022-09-17T08:35:55.143Z,0.30
2022-09-17T08:38:59.525Z,0.43
2022-09-17T08:42:41.798Z,0.30
2022-09-17T08:45:56.045Z,0.47
2022-09-17T08:49:15.376Z,0.40
2022-09-17T08:52:48.493Z,0.38
2022-09-17T08:56:09.749Z,0.50
2022-09-17T08:59:31.059Z,0.30
2022-09-17T09:03:02.596Z,0.50
2022-09-17T09:06:10.896Z,0.68
2022-09-17T09:09:21.158Z,0.30
2022-09-17T09:12:29.972Z,0.50
2022-09-17T09:15:43.826Z,0.60
2022-09-17T09:18:54.174Z,0.68
2022-09-17T09:22:19.165Z,0.50
2022-09-17T09:25:28.695Z,0.60
2022-09-17T09:29:05.810Z,0.25
2022-09-17T09:32:48.609Z,0.40
2022-09-17T09:35:53.130Z,0.38
2022-09-17T09:39:24.395Z,0.40
2022-09-17T09:42:35.485Z,0.47
2022-09-17T09:46:17.119Z,0.20
2022-09-17T09:50:12.172Z,0.35
2022-09-17T09:53:53.484Z,0.60
2022-09-17T09:57:06.304Z,0.15
2022-09-17T10:00:38.128Z,0.50
2022-09-17T10:03:46.251Z,0.30
2022-09-17T10:07:03.450Z,0.30
2022-09-17T10:10:10.474Z,0.20
2022-09-17T10:13:15.046Z,0.25
2022-09-17T10:16:29.256Z,0.30
2022-09-17T10:19:33.983Z,0.30
2022-09-17T10:22:44.684Z,0.22
2022-09-17T10:25:50.319Z,0.20
2022-09-17T10:29:02.304Z,0.30
2022-09-17T10:32:08.347Z,0.30
2022-09-17T10:35:16.230Z,0.30
2022-09-17T10:38:46.175Z,0.40
2022-09-17T10:42:11.624Z,0.40
2022-09-17T10:45:31.004Z,0.40
2022-09-17T10:49:11.084Z,0.28
2022-09-17T10:52:27.085Z,0.50
2022-09-17T10:55:38.410Z,0.30
2022-09-17T10:59:05.933Z,0.25
2022-09-17T11:02:48.113Z,0.20
2022-09-17T11:06:55.331Z,0.65
2022-09-17T11:10:27.836Z,0.30
2022-09-17T11:13:43.818Z,0.30
2022-09-17T11:17:26.006Z,0.30
2022-09-17T11:21:04.405Z,0.55
2022-09-17T11:24:33.874Z,0.20
2022-09-17T11:28:07.800Z,0.35
2022-09-17T11:32:04.968Z,0.20
2022-09-17T11:35:16.997Z,0.30
2022-09-17T11:38:34.437Z,0.32
2022-09-17T11:41:45.321Z,0.32
2022-09-17T11:45:25.978Z,0.40
2022-09-17T11:48:47.315Z,0.38
2022-09-17T11:52:05.664Z,0.60
2022-09-17T11:55:35.620Z,0.40
2022-09-17T11:59:04.624Z,0.43
2022-09-17T12:02:09.326Z,0.70
2022-09-17T12:05:42.564Z,0.30
2022-09-17T12:08:51.059Z,0.52
2022-09-17T12:12:45.038Z,0.80
2022-09-17T12:15:53.071Z,0.80
2022-09-17T12:19:31.307Z,0.50
2022-09-17T12:22:41.961Z,0.50
2022-09-17T12:26:24.981Z,0.52
2022-09-17T12:30:18.175Z,0.40
2022-09-17T12:33:40.411Z,0.40
2022-09-17T12:37:37.778Z,0.50
2022-09-17T12:41:29.521Z,0.70
2022-09-17T12:45:01.331Z,0.57
2022-09-17T12:48:18.450Z,0.50
2022-09-17T12:52:01.485Z,0.63
2022-09-17T12:55:45.620Z,0.47
2022-09-17T12:59:09.242Z,0.60
2022-09-17T13:02:28.695Z,0.50
2022-09-17T13:06:04.677Z,0.50
2022-09-17T13:09:43.406Z,0.50
2022-09-17T13:13:43.145Z,0.50
2022-09-17T13:17:15.803Z,0.70
2022-09-17T13:20:34.793Z,0.70
2022-09-17T13:23:48.006Z,0.60
2022-09-17T13:26:55.096Z,0.50
2022-09-17T13:30:00.643Z,0.60
2022-09-17T13:33:05.025Z,0.50
2022-09-17T13:36:47.360Z,0.43
2022-09-17T13:39:52.486Z,0.40
2022-09-17T13:43:06.308Z,0.80
2022-09-17T13:46:14.544Z,0.68
2022-09-17T13:49:19.452Z,0.47
2022-09-17T13:52:52.242Z,0.52
2022-09-17T13:56:00.606Z,0.50
2022-09-17T13:59:29.180Z,0.40
2022-09-17T14:02:35.352Z,0.47
2022-09-17T14:05:40.153Z,0.52
2022-09-17T14:08:44.781Z,0.50
2022-09-17T14:11:49.395Z,0.60
2022-09-17T14:14:54.303Z,0.80
2022-09-17T14:17:59.193Z,0.75
2022-09-17T14:21:24.905Z,0.55
2022-09-17T14:24:44.263Z,0.70
2022-09-17T14:28:00.179Z,0.63
2022-09-17T14:31:18.027Z,0.70
2022-09-17T14:34:25.572Z,0.75
2022-09-17T14:37:30.463Z,0.90
2022-09-17T14:40:35.473Z,0.60
2022-09-17T14:44:05.777Z,0.77
2022-09-17T14:47:17.308Z,1.00
2022-09-17T14:50:26.577Z,0.85
2022-09-17T14:53:31.141Z,0.60
2022-09-17T14:56:45.794Z,0.50
2022-09-17T14:59:54.694Z,0.68
2022-09-17T15:03:00.095Z,0.80
2022-09-17T15:06:05.154Z,0.50
2022-09-17T15:09:36.241Z,0.40
2022-09-17T15:12:40.913Z,0.70
2022-09-17T15:16:02.297Z,0.80
2022-09-17T15:19:14.292Z,0.43
2022-09-17T15:22:34.150Z,0.50
2022-09-17T15:25:39.772Z,0.50
2022-09-17T15:28:45.838Z,0.50
2022-09-17T15:31:50.817Z,0.73
2022-09-17T15:35:14.112Z,0.63
2022-09-17T15:38:29.390Z,0.60
2022-09-17T15:41:36.532Z,0.50
2022-09-17T15:44:41.509Z,0.55
2022-09-17T15:47:56.072Z,0.50
2022-09-17T15:51:03.599Z,0.70
2022-09-17T15:54:32.521Z,0.40
2022-09-17T15:57:37.795Z,0.60
2022-09-17T16:00:43.283Z,0.50
2022-09-17T16:04:34.315Z,0.57
2022-09-17T16:07:41.291Z,0.60
2022-09-17T16:10:54.944Z,0.55
2022-09-17T16:14:02.103Z,0.50
2022-09-17T16:17:26.182Z,0.80
2022-09-17T16:20:31.472Z,0.77
2022-09-17T16:23:37.795Z,0.60
2022-09-17T16:26:47.083Z,0.60
2022-09-17T16:30:04.480Z,0.82
2022-09-17T16:33:12.583Z,0.50
2022-09-17T16:36:18.174Z,0.77
2022-09-17T16:39:23.142Z,0.50
2022-09-17T16:42:32.019Z,0.60
2022-09-17T16:45:37.297Z,0.55
2022-09-17T16:48:44.533Z,0.93
2022-09-17T16:51:49.689Z,0.50
2022-09-17T16:54:54.772Z,0.60
2022-09-17T16:58:07.743Z,0.77
2022-09-17T17:01:20.210Z,0.63
2022-09-17T17:04:31.152Z,1.05
2022-09-17T17:07:41.385Z,0.75
2022-09-17T17:10:52.873Z,0.57
2022-09-17T17:14:09.469Z,0.90
2022-09-17T17:17:23.882Z,0.77
2022-09-17T17:20:34.205Z,0.80
2022-09-17T17:23:45.719Z,0.70
2022-09-17T17:26:58.858Z,0.70
2022-09-17T17:30:12.776Z,1.17
2022-09-17T17:36:29.197Z,0.50
2022-09-17T17:39:39.183Z,0.63
2022-09-17T17:42:54.060Z,0.50
2022-09-17T17:46:03.901Z,0.63
2022-09-17T17:49:12.207Z,0.63
2022-09-17T17:52:22.162Z,0.57
2022-09-17T17:55:28.255Z,0.60
2022-09-17T17:58:34.392Z,0.65
2022-09-17T18:02:03.963Z,0.50
2022-09-17T18:05:09.637Z,0.50
2022-09-17T18:08:14.290Z,0.50
2022-09-17T18:11:20.647Z,0.60
2022-09-17T18:14:26.460Z,0.65
2022-09-17T18:17:31.833Z,0.57
2022-09-17T18:20:36.702Z,0.77
2022-09-17T18:23:42.715Z,0.70
2022-09-17T18:26:48.993Z,0.35
2022-09-17T18:29:53.719Z,0.47
2022-09-17T18:32:58.758Z,0.60
2022-09-17T18:36:06.523Z,0.70
2022-09-17T18:42:39.612Z,0.60
2022-09-17T18:45:57.094Z,0.35
2022-09-17T18:49:02.532Z,0.50
2022-09-17T18:52:07.369Z,0.60
2022-09-17T18:55:12.483Z,0.50
2022-09-17T18:58:16.849Z,0.73
2022-09-17T19:01:25.420Z,1.00
2022-09-17T19:04:30.625Z,1.35
2022-09-17T19:07:36.087Z,1.85
2022-09-17T19:10:41.905Z,2.42
2022-09-17T19:13:50.304Z,2.90
2022-09-17T19:16:56.896Z,2.60
2022-09-17T19:20:03.849Z,2.00
2022-09-17T19:23:09.403Z,1.77
2022-09-17T19:26:27.540Z,4.38
2022-09-17T19:29:32.336Z,4.13
2022-09-17T19:32:43.031Z,4.25
2022-09-17T19:35:51.522Z,3.70
2022-09-17T19:38:58.798Z,4.28
2022-09-17T19:42:04.119Z,4.85
2022-09-17T19:45:09.651Z,5.72
2022-09-17T19:48:15.121Z,4.68
2022-09-17T19:51:21.805Z,4.63
2022-09-17T19:54:26.650Z,5.53
2022-09-17T19:57:33.153Z,5.10
2022-09-17T20:00:38.813Z,5.25
2022-09-17T20:03:45.142Z,4.97
2022-09-17T20:06:50.138Z,6.15
2022-09-17T20:09:55.660Z,6.13
2022-09-17T20:13:00.389Z,9.05
2022-09-17T20:16:23.319Z,11.93
2022-09-17T20:19:28.078Z,9.25
2022-09-17T20:22:33.470Z,6.75
2022-09-17T20:25:38.731Z,4.93
2022-09-17T20:28:44.550Z,4.25
2022-09-17T20:31:50.287Z,2.70
2022-09-17T20:34:56.395Z,2.35
2022-09-17T20:39:06.701Z,2.22
2022-09-17T20:41:32.070Z,1.55
2022-09-17T20:44:37.605Z,1.23
2022-09-17T20:47:42.753Z,1.23
2022-09-17T20:51:11.275Z,1.23
2022-09-17T20:54:15.988Z,1.10
2022-09-17T20:57:21.537Z,0.98
2022-09-17T21:00:26.752Z,1.17
2022-09-17T21:03:35.099Z,0.90
2022-09-17T21:06:42.798Z,0.80
2022-09-17T21:09:50.702Z,0.70
2022-09-17T21:12:55.844Z,0.70
2022-09-17T21:16:01.303Z,0.77
2022-09-17T21:19:09.579Z,0.70
2022-09-17T21:22:14.163Z,0.50
2022-09-17T21:25:19.188Z,0.60
2022-09-17T21:28:23.366Z,0.63
2022-09-17T21:31:33.239Z,0.88
2022-09-17T21:34:38.337Z,0.57
2022-09-17T21:37:43.552Z,0.60
2022-09-17T21:40:59.079Z,0.50
2022-09-17T21:44:04.162Z,0.57
2022-09-17T21:47:12.255Z,0.70
2022-09-17T21:50:17.267Z,0.60
2022-09-17T21:53:22.169Z,0.60
2022-09-17T21:56:28.106Z,0.50
2022-09-17T21:59:32.757Z,0.60
2022-09-17T22:02:37.568Z,0.52
2022-09-17T22:05:42.390Z,0.55
2022-09-17T22:08:48.984Z,0.70
2022-09-17T22:11:54.469Z,0.60
2022-09-17T22:14:59.422Z,0.57
2022-09-17T22:18:08.514Z,0.50
2022-09-17T22:21:19.634Z,1.20
2022-09-17T22:24:25.237Z,0.80
2022-09-17T22:27:29.481Z,0.50
2022-09-17T22:30:35.825Z,0.60
2022-09-17T22:33:44.610Z,0.70
2022-09-17T22:36:49.990Z,0.60
2022-09-17T22:39:55.041Z,0.70
2022-09-17T22:42:59.467Z,0.50
2022-09-17T22:46:17.233Z,0.50
2022-09-17T22:49:21.710Z,0.50
2022-09-17T22:52:26.570Z,0.45
2022-09-17T22:55:31.237Z,0.60
2022-09-17T22:58:36.644Z,0.70
2022-09-17T23:01:42.173Z,0.60
2022-09-17T23:04:47.002Z,0.60
2022-09-17T23:07:52.513Z,0.40
2022-09-17T23:10:57.249Z,0.57
2022-09-17T23:14:11.896Z,0.45
2022-09-17T23:17:16.851Z,0.73
2022-09-17T23:20:21.835Z,0.60
2022-09-17T23:23:27.288Z,0.47
2022-09-17T23:26:32.032Z,0.68
2022-09-17T23:29:36.802Z,0.73
2022-09-17T23:32:41.394Z,0.60
2022-09-17T23:35:46.368Z,0.70
2022-09-17T23:38:51.800Z,0.70
2022-09-17T23:41:57.065Z,0.73
2022-09-17T23:45:03.173Z,0.45
2022-09-17T23:48:07.919Z,0.60
2022-09-17T23:51:13.064Z,0.50
2022-09-17T23:54:17.738Z,0.70
2022-09-17T23:57:22.810Z,0.60
